Latest Weather Observations for South Channel Island

IDV60901

Issued at 5:05 pm EST Wednesday 3 September 2014 (issued every 10 minutes, with the page automatically refreshed every 10 minutes)

About weather observations | Map of Melbourne area stations | Latest observations for Melbourne area | Other Formats
Station Details ID: 086344 Name: SOUTH CHANNEL ISLAND Lat: -38.31 Lon: 144.80 Height: 9.0 m
Data from the previous 72 hours. | See also: Recent months for locations in Victoria
Date/Time
EST
Tmp

°C
App
Tmp
°C
Dew
Point
°C
Rel
Hum
%
Delta-T

°C
Wind Press
QNH
hPa
Press
MSL
hPa
Rain
since
9 am
mm
Dir
 
Spd
km/h
Gust
km/h
Spd
kts
Gust
kts
03/05:00pm - - - - - SSW 20 26 11 14 - - -
03/04:30pm - - - - - SSW 19 22 10 12 - - -
03/04:00pm - - - - - SSW 19 24 10 13 - - -
03/03:30pm - - - - - SSW 24 30 13 16 - - -
03/03:00pm - - - - - SSW 22 28 12 15 - - -
03/02:30pm - - - - - S 19 26 10 14 - - -
03/02:00pm - - - - - SW 19 28 10 15 - - -
03/01:30pm - - - - - SW 17 24 9 13 - - -
03/01:00pm - - - - - SSW 20 28 11 15 - - -
03/12:30pm - - - - - S 22 32 12 17 - - -
03/12:00pm - - - - - SSW 24 30 13 16 - - -
03/11:30am - - - - - S 22 26 12 14 - - -
03/11:00am - - - - - S 17 24 9 13 - - -
03/10:30am - - - - - S 20 24 11 13 - - -
03/10:00am - - - - - S 22 28 12 15 - - -
03/09:30am - - - - - S 24 28 13 15 - - -
03/09:00am - - - - - S 22 28 12 15 - - -
03/08:30am - - - - - S 24 33 13 18 - - -
03/08:00am - - - - - S 32 39 17 21 - - -
03/07:30am - - - - - S 28 35 15 19 - - -
03/07:00am - - - - - S 28 33 15 18 - - -
03/06:30am - - - - - SW 26 28 14 15 - - -
03/06:00am - - - - - SSW 28 39 15 21 - - -
03/05:30am - - - - - SSW 32 39 17 21 - - -
03/05:00am - - - - - SSW 32 41 17 22 - - -
03/04:30am - - - - - SSW 28 32 15 17 - - -
03/04:00am - - - - - SSW 26 30 14 16 - - -
03/03:30am - - - - - SSW 30 35 16 19 - - -
03/03:00am - - - - - SSW 32 35 17 19 - - -
03/02:30am - - - - - SSW 35 43 19 23 - - -
03/02:00am - - - - - SSW 35 41 19 22 - - -
03/01:30am - - - - - SSW 35 41 19 22 - - -
03/01:00am - - - - - SSW 37 44 20 24 - - -
03/12:30am - - - - - SSW 35 41 19 22 - - -
03/12:00am - - - - - SSW 35 43 19 23 - - -
 
Date/Time
EST
Tmp

°C
App
Tmp
°C
Dew
Point
°C
Rel
Hum
%
Delta-T

°C
Wind Press
QNH
hPa
Press
MSL
hPa
Rain
since
9 am
mm
Dir
 
Spd
km/h
Gust
km/h
Spd
kts
Gust
kts
02/11:30pm - - - - - SSW 33 41 18 22 - - -
02/11:00pm - - - - - SSW 33 41 18 22 - - -
02/10:30pm - - - - - SSW 39 46 21 25 - - -
02/10:00pm - - - - - SSW 35 39 19 21 - - -
02/09:30pm - - - - - S 33 43 18 23 - - -
02/09:00pm - - - - - S 41 48 22 26 - - -
02/08:30pm - - - - - SSW 33 39 18 21 - - -
02/08:00pm - - - - - SW 28 35 15 19 - - -
02/07:30pm - - - - - SW 30 37 16 20 - - -
02/07:00pm - - - - - SSW 33 39 18 21 - - -
02/06:30pm - - - - - S 33 44 18 24 - - -
02/06:00pm - - - - - S 37 44 20 24 - - -
02/05:30pm - - - - - S 37 43 20 23 - - -
02/05:00pm - - - - - S 39 44 21 24 - - -
02/04:30pm - - - - - S 39 48 21 26 - - -
02/04:00pm - - - - - S 37 46 20 25 - - -
02/03:30pm - - - - - S 37 44 20 24 - - -
02/03:00pm - - - - - S 37 46 20 25 - - -
02/02:30pm - - - - - S 43 52 23 28 - - -
02/02:00pm - - - - - S 43 52 23 28 - - -
02/01:30pm - - - - - S 44 54 24 29 - - -
02/01:00pm - - - - - S 48 56 26 30 - - -
02/12:30pm - - - - - S 50 57 27 31 - - -
02/12:00pm - - - - - S 48 57 26 31 - - -
02/11:30am - - - - - S 50 57 27 31 - - -
02/11:00am - - - - - S 52 61 28 33 - - -
02/10:30am - - - - - S 48 57 26 31 - - -
02/10:00am - - - - - SSW 44 54 24 29 - - -
02/09:30am - - - - - SSW 46 54 25 29 - - -
02/09:00am - - - - - SSW 43 52 23 28 - - -
02/08:30am - - - - - SSW 39 46 21 25 - - -
02/08:09am - - - - - SW 41 59 22 32 - - -
02/08:00am - - - - - SW 50 63 27 34 - - -
02/07:54am - - - - - SSW 39 57 21 31 - - -
02/07:30am - - - - - SSW 35 41 19 22 - - -
02/07:00am - - - - - SSW 33 39 18 21 - - -
02/06:30am - - - - - SSW 37 44 20 24 - - -
02/06:00am - - - - - SSW 35 39 19 21 - - -
02/05:30am - - - - - SSW 37 44 20 24 - - -
02/05:00am - - - - - SSW 39 48 21 26 - - -
02/04:30am - - - - - SSW 39 48 21 26 - - -
02/04:00am - - - - - SSW 28 35 15 19 - - -
02/03:30am - - - - - SSW 30 35 16 19 - - -
02/03:16am - - - - - SSW 28 37 15 20 - - -
02/03:00am - - - - - S 15 19 8 10 - - -
02/02:30am - - - - - S 30 37 16 20 - - -
02/02:06am - - - - - SSW 35 44 19 24 - - -
02/02:00am - - - - - SW 20 26 11 14 - - -
02/01:30am - - - - - SW 26 33 14 18 - - -
02/01:00am - - - - - W 20 24 11 13 - - -
02/12:30am - - - - - W 17 22 9 12 - - -
02/12:00am - - - - - W 32 50 17 27 - - -
 
Date/Time
EST
Tmp

°C
App
Tmp
°C
Dew
Point
°C
Rel
Hum
%
Delta-T

°C
Wind Press
QNH
hPa
Press
MSL
hPa
Rain
since
9 am
mm
Dir
 
Spd
km/h
Gust
km/h
Spd
kts
Gust
kts
01/11:30pm - - - - - W 28 32 15 17 - - -
01/11:00pm - - - - - SW 20 26 11 14 - - -
01/10:30pm - - - - - SW 22 26 12 14 - - -
01/10:00pm - - - - - SW 19 24 10 13 - - -
01/09:30pm - - - - - SW 22 26 12 14 - - -
01/09:00pm - - - - - SW 22 30 12 16 - - -
01/08:30pm - - - - - SW 24 28 13 15 - - -
01/08:00pm - - - - - SSW 22 26 12 14 - - -
01/07:30pm - - - - - SW 28 33 15 18 - - -
01/07:00pm - - - - - SW 32 35 17 19 - - -
01/06:30pm - - - - - SW 33 39 18 21 - - -
01/06:00pm - - - - - SW 32 35 17 19 - - -
01/05:30pm - - - - - SW 30 35 16 19 - - -
01/05:00pm - - - - - SW 33 37 18 20 - - -
01/04:30pm - - - - - SW 33 41 18 22 - - -
01/04:00pm - - - - - SW 30 35 16 19 - - -
01/03:30pm - - - - - SW 30 39 16 21 - - -
01/03:00pm - - - - - WSW 20 26 11 14 - - -
01/02:30pm - - - - - WSW 28 33 15 18 - - -
01/02:00pm - - - - - WNW 26 30 14 16 - - -
01/01:30pm - - - - - NW 26 30 14 16 - - -
01/01:00pm - - - - - NW 22 26 12 14 - - -
01/12:30pm - - - - - NNW 22 26 12 14 - - -
01/12:00pm - - - - - NNW 26 30 14 16 - - -
01/11:30am - - - - - N 28 33 15 18 - - -
01/11:00am - - - - - NW 26 28 14 15 - - -
01/10:30am - - - - - NW 24 28 13 15 - - -
01/10:00am - - - - - N 26 32 14 17 - - -
01/09:30am - - - - - NNW 30 32 16 17 - - -
01/09:00am - - - - - NNW 19 22 10 12 - - -
01/08:30am - - - - - NNW 28 32 15 17 - - -
01/08:00am - - - - - N 28 30 15 16 - - -
01/07:30am - - - - - N 32 39 17 21 - - -
01/07:00am - - - - - N 32 37 17 20 - - -
01/06:30am - - - - - N 33 37 18 20 - - -
01/06:00am - - - - - N 37 41 20 22 - - -
01/05:30am - - - - - NNW 35 43 19 23 - - -
01/05:24am - - - - - NNW 39 43 21 23 - - -
01/05:00am - - - - - N 44 52 24 28 - - -
01/04:30am - - - - - N 39 44 21 24 - - -
01/04:00am - - - - - N 41 48 22 26 - - -
01/03:30am - - - - - N 44 52 24 28 - - -
01/03:00am - - - - - N 46 54 25 29 - - -
01/02:30am - - - - - N 44 56 24 30 - - -
01/02:00am - - - - - N 39 44 21 24 - - -
01/01:30am - - - - - N 41 48 22 26 - - -
01/01:00am - - - - - N 43 48 23 26 - - -
01/12:30am - - - - - N 46 54 25 29 - - -
01/12:00am - - - - - N 37 39 20 21 - - -
 
Date/Time
EST
Tmp

°C
App
Tmp
°C
Dew
Point
°C
Rel
Hum
%
Delta-T

°C
Wind Press
QNH
hPa
Press
MSL
hPa
Rain
since
9 am
mm
Dir
 
Spd
km/h
Gust
km/h
Spd
kts
Gust
kts
31/11:30pm - - - - - N 20 26 11 14 - - -
31/11:00pm - - - - - N 32 35 17 19 - - -
31/10:30pm - - - - - NNE 20 28 11 15 - - -
31/10:00pm - - - - - NNE 37 41 20 22 - - -
31/09:30pm - - - - - NNE 35 39 19 21 - - -
31/09:00pm - - - - - NNE 28 30 15 16 - - -
31/08:30pm - - - - - NNE 28 30 15 16 - - -
31/08:00pm - - - - - NNE 26 28 14 15 - - -
31/07:30pm - - - - - NNE 33 37 18 20 - - -
31/07:00pm - - - - - NNE 32 33 17 18 - - -
31/06:30pm - - - - - N 39 43 21 23 - - -
31/06:00pm - - - - - N 46 50 25 27 - - -
31/05:30pm - - - - - N 39 46 21 25 - - -

Latest Capital City Observations: Canberra | Sydney | Melbourne | Brisbane | Adelaide | Perth | Hobart | Darwin

Other Formats:

Comma delimited format used in spreadsheet applications
http://www.bom.gov.au/fwo/IDV60901/IDV60901.94853.axf

JavaScript Object Notation format (JSON) in row-major order
http://www.bom.gov.au/fwo/IDV60901/IDV60901.94853.json